sensor_id;sensor_type;location;lat;lon;timestamp;pressure;altitude;pressure_sealevel;temperature;humidity
50166;BME280;36071;48.140;11.516;2023-04-20T00:00:54;95410.0;;;5.4;89.3
50166;BME280;36071;48.140;11.516;2023-04-20T00:05:54;95410.0;;;5.4;88.6
50166;BME280;36071;48.140;11.516;2023-04-20T00:10:54;95410.0;;;5.4;87.5
50166;BME280;36071;48.140;11.516;2023-04-20T00:15:54;95400.0;;;5.4;88.4
50166;BME280;36071;48.140;11.516;2023-04-20T00:20:54;95380.0;;;5.4;88.1
50166;BME280;36071;48.140;11.516;2023-04-20T00:25:54;95390.0;;;5.4;89.4
50166;BME280;36071;48.140;11.516;2023-04-20T00:30:54;95380.0;;;5.4;89.1
50166;BME280;36071;48.140;11.516;2023-04-20T00:35:54;95360.0;;;5.3;89.1
50166;BME280;36071;48.140;11.516;2023-04-20T00:40:54;95370.0;;;5.4;89.2
50166;BME280;36071;48.140;11.516;2023-04-20T00:45:54;95350.0;;;5.4;87.9
50166;BME280;36071;48.140;11.516;2023-04-20T00:50:54;95350.0;;;5.4;87.7
50166;BME280;36071;48.140;11.516;2023-04-20T00:55:54;95330.0;;;5.4;87.2
50166;BME280;36071;48.140;11.516;2023-04-20T01:00:54;95330.0;;;5.4;86.3
50166;BME280;36071;48.140;11.516;2023-04-20T01:05:54;95320.0;;;5.4;86.1
50166;BME280;36071;48.140;11.516;2023-04-20T01:10:54;95320.0;;;5.4;85.8
50166;BME280;36071;48.140;11.516;2023-04-20T01:15:56;95310.0;;;5.4;86.6
50166;BME280;36071;48.140;11.516;2023-04-20T01:20:54;95300.0;;;5.4;86.8
50166;BME280;36071;48.140;11.516;2023-04-20T01:25:54;95300.0;;;5.3;86.3
50166;BME280;36071;48.140;11.516;2023-04-20T01:30:54;95310.0;;;5.3;86.1
50166;BME280;36071;48.140;11.516;2023-04-20T01:35:54;95310.0;;;5.3;86.4
50166;BME280;36071;48.140;11.516;2023-04-20T01:40:54;95300.0;;;5.3;86.4
50166;BME280;36071;48.140;11.516;2023-04-20T01:45:54;95300.0;;;5.2;86.2
50166;BME280;36071;48.140;11.516;2023-04-20T01:50:54;95290.0;;;5.3;85.7
50166;BME280;36071;48.140;11.516;2023-04-20T01:55:54;95280.0;;;5.3;83.9
50166;BME280;36071;48.140;11.516;2023-04-20T02:00:54;95280.0;;;5.3;84.7
50166;BME280;36071;48.140;11.516;2023-04-20T02:05:54;95280.0;;;5.3;83.0
50166;BME280;36071;48.140;11.516;2023-04-20T02:10:54;95280.0;;;5.2;83.6
50166;BME280;36071;48.140;11.516;2023-04-20T02:15:54;95270.0;;;5.2;83.6
50166;BME280;36071;48.140;11.516;2023-04-20T02:20:54;95270.0;;;5.2;84.3
50166;BME280;36071;48.140;11.516;2023-04-20T02:25:54;95270.0;;;5.0;82.4
50166;BME280;36071;48.140;11.516;2023-04-20T02:30:54;95270.0;;;4.9;83.5
50166;BME280;36071;48.140;11.516;2023-04-20T02:35:54;95270.0;;;5.1;82.6
50166;BME280;36071;48.140;11.516;2023-04-20T02:40:54;95270.0;;;4.9;82.0
50166;BME280;36071;48.140;11.516;2023-04-20T02:45:54;95260.0;;;4.9;82.1
50166;BME280;36071;48.140;11.516;2023-04-20T02:50:54;95250.0;;;4.7;82.3
50166;BME280;36071;48.140;11.516;2023-04-20T02:55:54;95250.0;;;4.7;83.7
50166;BME280;36071;48.140;11.516;2023-04-20T03:00:57;95250.0;;;4.7;84.2
50166;BME280;36071;48.140;11.516;2023-04-20T03:05:54;95250.0;;;4.7;84.8
50166;BME280;36071;48.140;11.516;2023-04-20T03:10:54;95240.0;;;4.8;84.7
50166;BME280;36071;48.140;11.516;2023-04-20T03:15:54;95240.0;;;4.8;83.4
50166;BME280;36071;48.140;11.516;2023-04-20T03:20:54;95230.0;;;4.8;85.7
50166;BME280;36071;48.140;11.516;2023-04-20T03:25:54;95230.0;;;4.8;85.6
50166;BME280;36071;48.140;11.516;2023-04-20T03:30:54;95220.0;;;4.8;85.9
50166;BME280;36071;48.140;11.516;2023-04-20T03:35:54;95220.0;;;4.8;86.2
50166;BME280;36071;48.140;11.516;2023-04-20T03:45:54;95210.0;;;4.9;86.3
50166;BME280;36071;48.140;11.516;2023-04-20T04:00:59;95200.0;;;4.9;86.8
50166;BME280;36071;48.140;11.516;2023-04-20T04:05:54;95200.0;;;4.9;86.5
50166;BME280;36071;48.140;11.516;2023-04-20T04:10:54;95190.0;;;4.9;86.9
50166;BME280;36071;48.140;11.516;2023-04-20T04:15:54;95200.0;;;4.8;86.5
50166;BME280;36071;48.140;11.516;2023-04-20T04:20:54;95200.0;;;4.7;86.1
50166;BME280;36071;48.140;11.516;2023-04-20T04:25:54;95200.0;;;4.8;86.5
50166;BME280;36071;48.140;11.516;2023-04-20T04:30:54;95200.0;;;4.6;86.3
50166;BME280;36071;48.140;11.516;2023-04-20T04:35:54;95190.0;;;4.7;86.8
50166;BME280;36071;48.140;11.516;2023-04-20T04:40:54;95190.0;;;4.6;86.5
50166;BME280;36071;48.140;11.516;2023-04-20T04:45:54;95180.0;;;4.7;86.6
50166;BME280;36071;48.140;11.516;2023-04-20T04:50:54;95190.0;;;4.7;86.7
50166;BME280;36071;48.140;11.516;2023-04-20T04:55:54;95200.0;;;4.6;86.6
50166;BME280;36071;48.140;11.516;2023-04-20T05:00:54;95190.0;;;4.7;87.3
50166;BME280;36071;48.140;11.516;2023-04-20T05:10:55;95200.0;;;4.8;87.3
50166;BME280;36071;48.140;11.516;2023-04-20T05:15:54;95180.0;;;4.8;87.9
50166;BME280;36071;48.140;11.516;2023-04-20T05:20:54;95190.0;;;4.8;87.6
50166;BME280;36071;48.140;11.516;2023-04-20T05:25:54;95200.0;;;4.8;88.1
50166;BME280;36071;48.140;11.516;2023-04-20T05:30:54;95190.0;;;4.8;87.7
50166;BME280;36071;48.140;11.516;2023-04-20T05:35:54;95180.0;;;4.7;86.4
50166;BME280;36071;48.140;11.516;2023-04-20T05:40:54;95190.0;;;4.8;87.0
50166;BME280;36071;48.140;11.516;2023-04-20T05:45:54;95190.0;;;4.7;86.9
50166;BME280;36071;48.140;11.516;2023-04-20T05:50:54;95190.0;;;4.7;87.5
50166;BME280;36071;48.140;11.516;2023-04-20T05:55:54;95190.0;;;4.8;87.7
50166;BME280;36071;48.140;11.516;2023-04-20T06:00:54;95190.0;;;4.7;86.9
50166;BME280;36071;48.140;11.516;2023-04-20T06:05:54;95180.0;;;4.8;88.0
50166;BME280;36071;48.140;11.516;2023-04-20T06:10:54;95180.0;;;4.8;86.9
50166;BME280;36071;48.140;11.516;2023-04-20T06:15:54;95180.0;;;4.7;87.8
50166;BME280;36071;48.140;11.516;2023-04-20T06:20:54;95180.0;;;4.8;87.9
50166;BME280;36071;48.140;11.516;2023-04-20T06:25:54;95170.0;;;4.9;88.8
50166;BME280;36071;48.140;11.516;2023-04-20T06:30:54;95170.0;;;4.8;87.6
50166;BME280;36071;48.140;11.516;2023-04-20T06:35:54;95160.0;;;4.8;87.1
50166;BME280;36071;48.140;11.516;2023-04-20T06:40:54;95150.0;;;4.9;87.4
50166;BME280;36071;48.140;11.516;2023-04-20T06:45:54;95150.0;;;4.9;87.2
50166;BME280;36071;48.140;11.516;2023-04-20T06:50:54;95160.0;;;4.9;85.9
50166;BME280;36071;48.140;11.516;2023-04-20T06:55:54;95160.0;;;4.9;86.5
50166;BME280;36071;48.140;11.516;2023-04-20T07:00:54;95150.0;;;4.9;86.5
50166;BME280;36071;48.140;11.516;2023-04-20T07:05:54;95150.0;;;4.9;85.7
50166;BME280;36071;48.140;11.516;2023-04-20T07:10:54;95150.0;;;5.0;85.8
50166;BME280;36071;48.140;11.516;2023-04-20T07:15:54;95150.0;;;5.1;86.2
50166;BME280;36071;48.140;11.516;2023-04-20T07:20:54;95150.0;;;5.0;84.8
50166;BME280;36071;48.140;11.516;2023-04-20T07:25:54;95150.0;;;5.0;84.1
50166;BME280;36071;48.140;11.516;2023-04-20T07:30:54;95170.0;;;5.1;84.5
50166;BME280;36071;48.140;11.516;2023-04-20T07:35:54;95180.0;;;5.0;85.2
50166;BME280;36071;48.140;11.516;2023-04-20T07:40:54;95190.0;;;5.0;85.8
50166;BME280;36071;48.140;11.516;2023-04-20T07:45:54;95190.0;;;5.0;86.5
50166;BME280;36071;48.140;11.516;2023-04-20T07:50:54;95190.0;;;4.9;86.0
50166;BME280;36071;48.140;11.516;2023-04-20T07:55:54;95190.0;;;4.9;85.3
50166;BME280;36071;48.140;11.516;2023-04-20T08:00:54;95170.0;;;5.0;85.7
50166;BME280;36071;48.140;11.516;2023-04-20T08:05:54;95190.0;;;5.0;85.0
50166;BME280;36071;48.140;11.516;2023-04-20T08:10:55;95160.0;;;4.9;84.9
50166;BME280;36071;48.140;11.516;2023-04-20T08:15:54;95160.0;;;5.0;84.7
50166;BME280;36071;48.140;11.516;2023-04-20T08:20:54;95160.0;;;5.0;85.3
50166;BME280;36071;48.140;11.516;2023-04-20T08:25:54;95170.0;;;4.9;84.3
50166;BME280;36071;48.140;11.516;2023-04-20T08:30:54;95160.0;;;5.0;84.8
50166;BME280;36071;48.140;11.516;2023-04-20T08:35:54;95170.0;;;5.0;84.3
50166;BME280;36071;48.140;11.516;2023-04-20T08:40:54;95160.0;;;5.1;83.8
50166;BME280;36071;48.140;11.516;2023-04-20T08:45:55;95160.0;;;5.1;82.9
50166;BME280;36071;48.140;11.516;2023-04-20T08:50:54;95160.0;;;5.2;82.9
50166;BME280;36071;48.140;11.516;2023-04-20T08:55:54;95160.0;;;5.3;81.9
50166;BME280;36071;48.140;11.516;2023-04-20T09:00:54;95170.0;;;5.3;81.5
50166;BME280;36071;48.140;11.516;2023-04-20T09:05:54;95170.0;;;5.5;81.6
50166;BME280;36071;48.140;11.516;2023-04-20T09:10:54;95180.0;;;5.5;81.9
50166;BME280;36071;48.140;11.516;2023-04-20T09:15:54;95180.0;;;5.5;80.9
50166;BME280;36071;48.140;11.516;2023-04-20T09:20:54;95170.0;;;5.3;80.9
50166;BME280;36071;48.140;11.516;2023-04-20T09:25:54;95180.0;;;5.5;81.0
50166;BME280;36071;48.140;11.516;2023-04-20T09:30:55;95170.0;;;5.5;82.1
50166;BME280;36071;48.140;11.516;2023-04-20T09:36:01;95170.0;;;5.6;82.1
50166;BME280;36071;48.140;11.516;2023-04-20T09:40:54;95170.0;;;5.6;81.5
50166;BME280;36071;48.140;11.516;2023-04-20T09:45:54;95150.0;;;5.7;80.8
50166;BME280;36071;48.140;11.516;2023-04-20T09:50:54;95140.0;;;5.6;81.0
50166;BME280;36071;48.140;11.516;2023-04-20T09:55:54;95140.0;;;5.7;82.1
50166;BME280;36071;48.140;11.516;2023-04-20T10:00:54;95090.0;;;5.3;82.7
50166;BME280;36071;48.140;11.516;2023-04-20T10:05:54;95130.0;;;5.8;82.2
50166;BME280;36071;48.140;11.516;2023-04-20T10:10:54;95130.0;;;5.7;81.8
50166;BME280;36071;48.140;11.516;2023-04-20T10:15:54;95130.0;;;5.7;81.9
50166;BME280;36071;48.140;11.516;2023-04-20T10:21:03;95150.0;;;5.7;82.3
50166;BME280;36071;48.140;11.516;2023-04-20T10:25:54;95140.0;;;5.7;80.9
50166;BME280;36071;48.140;11.516;2023-04-20T10:30:54;95130.0;;;5.7;81.3
50166;BME280;36071;48.140;11.516;2023-04-20T10:35:54;95130.0;;;5.8;80.8
50166;BME280;36071;48.140;11.516;2023-04-20T10:40:54;95120.0;;;5.8;81.2
50166;BME280;36071;48.140;11.516;2023-04-20T10:45:54;95110.0;;;5.8;80.4
50166;BME280;36071;48.140;11.516;2023-04-20T10:50:54;95040.0;;;5.4;79.8
50166;BME280;36071;48.140;11.516;2023-04-20T10:55:57;95120.0;;;6.1;79.7
50166;BME280;36071;48.140;11.516;2023-04-20T11:00:55;95100.0;;;6.2;78.8
50166;BME280;36071;48.140;11.516;2023-04-20T11:05:54;95090.0;;;6.3;79.1
50166;BME280;36071;48.140;11.516;2023-04-20T11:10:54;95090.0;;;6.3;79.7
50166;BME280;36071;48.140;11.516;2023-04-20T11:15:54;95090.0;;;6.5;79.3
50166;BME280;36071;48.140;11.516;2023-04-20T11:20:54;95070.0;;;6.5;78.6
50166;BME280;36071;48.140;11.516;2023-04-20T11:25:54;95080.0;;;6.7;78.2
50166;BME280;36071;48.140;11.516;2023-04-20T11:30:54;95080.0;;;6.6;78.4
50166;BME280;36071;48.140;11.516;2023-04-20T11:35:54;95080.0;;;6.8;77.6
50166;BME280;36071;48.140;11.516;2023-04-20T11:40:54;95070.0;;;6.6;77.3
50166;BME280;36071;48.140;11.516;2023-04-20T11:45:54;95070.0;;;6.6;76.8
50166;BME280;36071;48.140;11.516;2023-04-20T11:50:54;95070.0;;;6.6;77.1
50166;BME280;36071;48.140;11.516;2023-04-20T11:55:54;95050.0;;;6.5;77.1
50166;BME280;36071;48.140;11.516;2023-04-20T12:00:54;95070.0;;;6.5;76.1
50166;BME280;36071;48.140;11.516;2023-04-20T12:05:54;95060.0;;;6.8;75.4
50166;BME280;36071;48.140;11.516;2023-04-20T12:10:54;95070.0;;;6.9;75.6
50166;BME280;36071;48.140;11.516;2023-04-20T12:15:54;95060.0;;;6.8;75.4
50166;BME280;36071;48.140;11.516;2023-04-20T12:20:54;95060.0;;;6.8;76.8
50166;BME280;36071;48.140;11.516;2023-04-20T12:25:54;95050.0;;;7.0;77.2
50166;BME280;36071;48.140;11.516;2023-04-20T12:30:54;95050.0;;;6.9;75.7
50166;BME280;36071;48.140;11.516;2023-04-20T12:35:54;95060.0;;;6.9;75.9
50166;BME280;36071;48.140;11.516;2023-04-20T12:40:54;95050.0;;;6.7;76.8
50166;BME280;36071;48.140;11.516;2023-04-20T12:45:54;95030.0;;;6.8;75.9
50166;BME280;36071;48.140;11.516;2023-04-20T12:50:54;95030.0;;;6.8;75.3
50166;BME280;36071;48.140;11.516;2023-04-20T12:55:54;95030.0;;;6.8;75.1
50166;BME280;36071;48.140;11.516;2023-04-20T13:00:54;95050.0;;;6.9;76.4
50166;BME280;36071;48.140;11.516;2023-04-20T13:05:54;95030.0;;;7.0;75.6
50166;BME280;36071;48.140;11.516;2023-04-20T13:10:54;95040.0;;;6.9;75.9
50166;BME280;36071;48.140;11.516;2023-04-20T13:15:54;95040.0;;;6.8;76.5
50166;BME280;36071;48.140;11.516;2023-04-20T13:20:54;95030.0;;;6.9;76.1
50166;BME280;36071;48.140;11.516;2023-04-20T13:25:54;95030.0;;;7.0;75.5
50166;BME280;36071;48.140;11.516;2023-04-20T13:30:55;95000.0;;;7.0;76.6
50166;BME280;36071;48.140;11.516;2023-04-20T13:35:54;95000.0;;;7.1;76.0
50166;BME280;36071;48.140;11.516;2023-04-20T13:40:59;95000.0;;;7.3;75.3
50166;BME280;36071;48.140;11.516;2023-04-20T13:45:54;95010.0;;;7.4;75.4
50166;BME280;36071;48.140;11.516;2023-04-20T13:50:54;95000.0;;;7.2;75.2
50166;BME280;36071;48.140;11.516;2023-04-20T13:55:54;95000.0;;;7.4;75.4
50166;BME280;36071;48.140;11.516;2023-04-20T14:00:54;95000.0;;;7.4;75.1
50166;BME280;36071;48.140;11.516;2023-04-20T14:05:54;95000.0;;;7.5;76.6
50166;BME280;36071;48.140;11.516;2023-04-20T14:10:54;95010.0;;;7.5;77.4
50166;BME280;36071;48.140;11.516;2023-04-20T14:15:54;95000.0;;;7.5;78.2
50166;BME280;36071;48.140;11.516;2023-04-20T14:20:54;94990.0;;;7.5;78.0
50166;BME280;36071;48.140;11.516;2023-04-20T14:25:54;94990.0;;;7.5;78.4
50166;BME280;36071;48.140;11.516;2023-04-20T14:30:54;94990.0;;;7.5;79.5
50166;BME280;36071;48.140;11.516;2023-04-20T14:35:54;95000.0;;;7.5;78.4
50166;BME280;36071;48.140;11.516;2023-04-20T14:40:54;94990.0;;;7.5;79.1
50166;BME280;36071;48.140;11.516;2023-04-20T14:45:54;94980.0;;;7.4;78.8
50166;BME280;36071;48.140;11.516;2023-04-20T14:50:54;94980.0;;;7.5;79.1
50166;BME280;36071;48.140;11.516;2023-04-20T14:55:54;94980.0;;;7.6;78.9
50166;BME280;36071;48.140;11.516;2023-04-20T15:00:54;94970.0;;;7.7;78.6
50166;BME280;36071;48.140;11.516;2023-04-20T15:05:57;94970.0;;;7.8;78.4
50166;BME280;36071;48.140;11.516;2023-04-20T15:10:54;94970.0;;;7.8;78.1
50166;BME280;36071;48.140;11.516;2023-04-20T15:15:55;94970.0;;;7.9;78.7
50166;BME280;36071;48.140;11.516;2023-04-20T15:20:54;94970.0;;;7.9;78.0
50166;BME280;36071;48.140;11.516;2023-04-20T15:25:54;94960.0;;;7.9;79.0
50166;BME280;36071;48.140;11.516;2023-04-20T15:30:54;94970.0;;;7.9;79.7
50166;BME280;36071;48.140;11.516;2023-04-20T15:35:54;94980.0;;;7.9;80.1
50166;BME280;36071;48.140;11.516;2023-04-20T15:40:54;94970.0;;;7.9;78.9
50166;BME280;36071;48.140;11.516;2023-04-20T15:45:54;94970.0;;;8.0;78.3
50166;BME280;36071;48.140;11.516;2023-04-20T15:50:54;94970.0;;;8.1;78.4
50166;BME280;36071;48.140;11.516;2023-04-20T16:00:54;94960.0;;;8.1;78.1
50166;BME280;36071;48.140;11.516;2023-04-20T16:05:54;94970.0;;;8.1;79.2
50166;BME280;36071;48.140;11.516;2023-04-20T16:10:54;94970.0;;;8.1;80.2
50166;BME280;36071;48.140;11.516;2023-04-20T16:15:54;94970.0;;;8.1;79.7
50166;BME280;36071;48.140;11.516;2023-04-20T16:20:54;94960.0;;;8.1;79.3
50166;BME280;36071;48.140;11.516;2023-04-20T16:25:54;94970.0;;;8.1;79.2
50166;BME280;36071;48.140;11.516;2023-04-20T16:30:54;94970.0;;;8.1;81.5
50166;BME280;36071;48.140;11.516;2023-04-20T16:35:54;94960.0;;;8.1;80.3
50166;BME280;36071;48.140;11.516;2023-04-20T16:40:54;94960.0;;;8.0;80.6
50166;BME280;36071;48.140;11.516;2023-04-20T16:45:54;94970.0;;;8.0;80.4
50166;BME280;36071;48.140;11.516;2023-04-20T16:50:54;94970.0;;;8.0;80.7
50166;BME280;36071;48.140;11.516;2023-04-20T16:55:54;94970.0;;;8.0;80.3
50166;BME280;36071;48.140;11.516;2023-04-20T17:00:57;94990.0;;;8.1;80.0
50166;BME280;36071;48.140;11.516;2023-04-20T17:05:54;94990.0;;;8.0;80.0
50166;BME280;36071;48.140;11.516;2023-04-20T17:10:54;94940.0;;;7.6;81.0
50166;BME280;36071;48.140;11.516;2023-04-20T17:15:54;94970.0;;;7.7;80.9
50166;BME280;36071;48.140;11.516;2023-04-20T17:20:54;95000.0;;;7.8;81.2
50166;BME280;36071;48.140;11.516;2023-04-20T17:25:54;95000.0;;;7.8;81.4
50166;BME280;36071;48.140;11.516;2023-04-20T17:30:54;95010.0;;;7.8;81.3
50166;BME280;36071;48.140;11.516;2023-04-20T17:35:54;95000.0;;;7.8;81.1
50166;BME280;36071;48.140;11.516;2023-04-20T17:40:54;95010.0;;;7.8;81.0
50166;BME280;36071;48.140;11.516;2023-04-20T17:45:54;95010.0;;;7.7;81.4
50166;BME280;36071;48.140;11.516;2023-04-20T17:50:54;95020.0;;;7.8;81.1
50166;BME280;36071;48.140;11.516;2023-04-20T17:55:54;95020.0;;;7.7;81.6
50166;BME280;36071;48.140;11.516;2023-04-20T18:00:54;95030.0;;;7.6;82.2
50166;BME280;36071;48.140;11.516;2023-04-20T18:05:54;95030.0;;;7.7;81.6
50166;BME280;36071;48.140;11.516;2023-04-20T18:10:54;95060.0;;;7.7;81.5
50166;BME280;36071;48.140;11.516;2023-04-20T18:15:54;95060.0;;;7.5;81.9
50166;BME280;36071;48.140;11.516;2023-04-20T18:20:54;95070.0;;;7.6;82.0
50166;BME280;36071;48.140;11.516;2023-04-20T18:25:54;95090.0;;;7.5;82.7
50166;BME280;36071;48.140;11.516;2023-04-20T18:35:54;95070.0;;;7.4;82.4
50166;BME280;36071;48.140;11.516;2023-04-20T18:40:54;95090.0;;;7.4;82.0
50166;BME280;36071;48.140;11.516;2023-04-20T18:45:54;95100.0;;;7.3;82.4
50166;BME280;36071;48.140;11.516;2023-04-20T18:50:55;95110.0;;;7.3;82.4
50166;BME280;36071;48.140;11.516;2023-04-20T18:55:54;95110.0;;;7.4;82.5
50166;BME280;36071;48.140;11.516;2023-04-20T19:00:54;95110.0;;;7.4;83.2
50166;BME280;36071;48.140;11.516;2023-04-20T19:05:54;95110.0;;;7.4;83.0
50166;BME280;36071;48.140;11.516;2023-04-20T19:10:54;95120.0;;;7.3;84.1
50166;BME280;36071;48.140;11.516;2023-04-20T19:15:54;95120.0;;;7.4;83.3
50166;BME280;36071;48.140;11.516;2023-04-20T19:20:54;95130.0;;;7.4;83.1
50166;BME280;36071;48.140;11.516;2023-04-20T19:25:54;95140.0;;;7.4;83.8
50166;BME280;36071;48.140;11.516;2023-04-20T19:30:54;95150.0;;;7.4;84.0
50166;BME280;36071;48.140;11.516;2023-04-20T19:35:54;95140.0;;;7.4;84.0
50166;BME280;36071;48.140;11.516;2023-04-20T19:40:54;95160.0;;;7.4;84.1
50166;BME280;36071;48.140;11.516;2023-04-20T19:45:54;95160.0;;;7.4;84.3
50166;BME280;36071;48.140;11.516;2023-04-20T19:50:54;95160.0;;;7.3;84.5
50166;BME280;36071;48.140;11.516;2023-04-20T19:55:54;95170.0;;;7.2;84.9
50166;BME280;36071;48.140;11.516;2023-04-20T20:05:54;95170.0;;;7.3;84.8
50166;BME280;36071;48.140;11.516;2023-04-20T20:10:54;95190.0;;;7.2;84.6
50166;BME280;36071;48.140;11.516;2023-04-20T20:15:54;95200.0;;;7.2;84.4
50166;BME280;36071;48.140;11.516;2023-04-20T20:20:54;95180.0;;;7.1;83.9
50166;BME280;36071;48.140;11.516;2023-04-20T20:25:54;95170.0;;;7.2;83.2
50166;BME280;36071;48.140;11.516;2023-04-20T20:30:54;95170.0;;;7.2;82.9
50166;BME280;36071;48.140;11.516;2023-04-20T20:35:54;95170.0;;;7.2;82.6
50166;BME280;36071;48.140;11.516;2023-04-20T20:40:54;95190.0;;;7.2;82.6
50166;BME280;36071;48.140;11.516;2023-04-20T20:45:54;95180.0;;;7.2;82.1
50166;BME280;36071;48.140;11.516;2023-04-20T20:50:54;95190.0;;;7.2;82.2
50166;BME280;36071;48.140;11.516;2023-04-20T20:55:54;95190.0;;;7.2;82.0
50166;BME280;36071;48.140;11.516;2023-04-20T21:00:54;95190.0;;;7.2;81.4
50166;BME280;36071;48.140;11.516;2023-04-20T21:05:54;95200.0;;;7.2;82.3
50166;BME280;36071;48.140;11.516;2023-04-20T21:10:54;95200.0;;;7.2;81.9
50166;BME280;36071;48.140;11.516;2023-04-20T21:15:55;95200.0;;;7.3;82.0
50166;BME280;36071;48.140;11.516;2023-04-20T21:20:54;95200.0;;;7.1;82.0
50166;BME280;36071;48.140;11.516;2023-04-20T21:30:54;95200.0;;;7.1;82.7
50166;BME280;36071;48.140;11.516;2023-04-20T21:35:54;95200.0;;;7.1;82.5
50166;BME280;36071;48.140;11.516;2023-04-20T21:40:54;95210.0;;;7.1;83.6
50166;BME280;36071;48.140;11.516;2023-04-20T21:45:54;95200.0;;;7.1;83.2
50166;BME280;36071;48.140;11.516;2023-04-20T21:50:54;95190.0;;;7.2;82.8
50166;BME280;36071;48.140;11.516;2023-04-20T21:55:54;95180.0;;;7.2;82.9
50166;BME280;36071;48.140;11.516;2023-04-20T22:00:54;95180.0;;;7.2;82.5
50166;BME280;36071;48.140;11.516;2023-04-20T22:05:54;95180.0;;;7.1;82.6
50166;BME280;36071;48.140;11.516;2023-04-20T22:10:54;95190.0;;;7.1;83.0
50166;BME280;36071;48.140;11.516;2023-04-20T22:15:54;95190.0;;;7.2;82.4
50166;BME280;36071;48.140;11.516;2023-04-20T22:20:54;95190.0;;;7.1;83.1
50166;BME280;36071;48.140;11.516;2023-04-20T22:25:54;95200.0;;;7.2;82.6
50166;BME280;36071;48.140;11.516;2023-04-20T22:30:54;95190.0;;;7.1;83.5
50166;BME280;36071;48.140;11.516;2023-04-20T22:35:54;95190.0;;;7.2;82.8
50166;BME280;36071;48.140;11.516;2023-04-20T22:40:54;95190.0;;;7.1;83.5
50166;BME280;36071;48.140;11.516;2023-04-20T22:45:54;95190.0;;;7.0;83.6
50166;BME280;36071;48.140;11.516;2023-04-20T22:50:54;95190.0;;;7.1;83.2
50166;BME280;36071;48.140;11.516;2023-04-20T22:56:00;95180.0;;;7.0;83.4
50166;BME280;36071;48.140;11.516;2023-04-20T23:00:54;95170.0;;;7.0;83.5
50166;BME280;36071;48.140;11.516;2023-04-20T23:05:54;95180.0;;;7.0;83.7
50166;BME280;36071;48.140;11.516;2023-04-20T23:10:54;95180.0;;;7.0;84.2
50166;BME280;36071;48.140;11.516;2023-04-20T23:20:54;95180.0;;;7.0;84.8
50166;BME280;36071;48.140;11.516;2023-04-20T23:25:54;95170.0;;;7.0;84.5
50166;BME280;36071;48.140;11.516;2023-04-20T23:30:54;95170.0;;;6.9;85.1
50166;BME280;36071;48.140;11.516;2023-04-20T23:35:54;95180.0;;;6.9;85.4
50166;BME280;36071;48.140;11.516;2023-04-20T23:40:54;95190.0;;;6.9;85.4
50166;BME280;36071;48.140;11.516;2023-04-20T23:45:54;95110.0;;;6.5;85.1
50166;BME280;36071;48.140;11.516;2023-04-20T23:50:54;95180.0;;;6.9;85.1
50166;BME280;36071;48.140;11.516;2023-04-20T23:55:54;95170.0;;;6.9;85.2
